PRIVATE WETTERSTATION BILLIGHEIM-ALLFELD                       ZURCK
Wetterdaten: Sonntag, 10.08.2014
Datum Zeit Temp. A. Temp. A. min Temp. A. max Feuchte A. Luftdruck Regen Wind Richtung Richtung Sonnenschein ET Solar Taupunkt Windchill Windben Empfang
10.08.2014 00:00 15,7 C 15,7 C 15,9 C 82 % 1011,9 hPa 0,0 l/m 0,0 km/h (0 Bft) NW 315 0 min 0,025 mm 0 W/m 12,6 C 15,7 C 4,8 km/h (1 Bft) 100 %
10.08.2014 00:10 15,6 C 15,6 C 15,8 C 82 % 1011,7 hPa 0,0 l/m 0,0 km/h (0 Bft) N 360 0 min 0,000 mm 0 W/m 12,5 C 15,6 C 6,4 km/h (2 Bft) 100 %
10.08.2014 00:20 15,7 C 15,6 C 15,7 C 82 % 1011,7 hPa 0,0 l/m 0,0 km/h (0 Bft) N-NW 337 0 min 0,000 mm 0 W/m 12,6 C 15,7 C 6,4 km/h (2 Bft) 100 %
10.08.2014 00:30 15,6 C 15,6 C 15,7 C 82 % 1011,8 hPa 0,0 l/m 0,0 km/h (0 Bft) N-NW 337 0 min 0,000 mm 0 W/m 12,5 C 15,6 C 8,0 km/h (2 Bft) 100 %
10.08.2014 00:40 15,4 C 15,4 C 15,6 C 82 % 1011,8 hPa 0,0 l/m 0,0 km/h (0 Bft) N-NO 22 0 min 0,000 mm 0 W/m 12,3 C 15,4 C 1,6 km/h (1 Bft) 100 %
10.08.2014 00:50 15,3 C 15,3 C 15,4 C 82 % 1011,5 hPa 0,0 l/m 0,0 km/h (0 Bft) N 360 0 min 0,000 mm 0 W/m 12,2 C 15,3 C 1,6 km/h (1 Bft) 100 %
10.08.2014 01:00 15,4 C 15,3 C 15,4 C 82 % 1011,2 hPa 0,0 l/m 0,0 km/h (0 Bft) N-NO 22 0 min 0,025 mm 0 W/m 12,3 C 15,4 C 8,0 km/h (2 Bft) 100 %
10.08.2014 01:10 15,7 C 15,4 C 15,7 C 81 % 1011,1 hPa 0,0 l/m 0,0 km/h (0 Bft) N-NW 337 0 min 0,000 mm 0 W/m 12,4 C 15,7 C 4,8 km/h (1 Bft) 100 %
10.08.2014 01:20 15,9 C 15,7 C 15,9 C 80 % 1011,0 hPa 0,0 l/m 0,0 km/h (0 Bft) N 360 0 min 0,000 mm 0 W/m 12,5 C 15,9 C 8,0 km/h (2 Bft) 100 %
10.08.2014 01:30 16,1 C 15,9 C 16,1 C 79 % 1011,0 hPa 0,0 l/m 0,0 km/h (0 Bft) N-NW 337 0 min 0,000 mm 0 W/m 12,5 C 16,1 C 4,8 km/h (1 Bft) 100 %
10.08.2014 01:40 15,9 C 15,9 C 16,1 C 80 % 1010,9 hPa 0,0 l/m 0,0 km/h (0 Bft) N-NW 337 0 min 0,000 mm 0 W/m 12,5 C 15,9 C 6,4 km/h (2 Bft) 100 %
10.08.2014 01:50 15,7 C 15,7 C 15,9 C 81 % 1010,9 hPa 0,0 l/m 0,0 km/h (0 Bft) N-NW 337 0 min 0,000 mm 0 W/m 12,4 C 15,7 C 4,8 km/h (1 Bft) 100 %
10.08.2014 02:00 15,6 C 15,6 C 15,7 C 81 % 1011,0 hPa 0,0 l/m 0,0 km/h (0 Bft) N-NW 337 0 min 0,025 mm 0 W/m 12,3 C 15,6 C 4,8 km/h (1 Bft) 100 %
10.08.2014 02:10 15,5 C 15,5 C 15,6 C 81 % 1011,0 hPa 0,0 l/m 0,0 km/h (0 Bft) N-NW 337 0 min 0,000 mm 0 W/m 12,3 C 15,5 C 1,6 km/h (1 Bft) 100 %
10.08.2014 02:20 15,6 C 15,5 C 15,6 C 81 % 1011,2 hPa 0,0 l/m 0,0 km/h (0 Bft) N-NW 337 0 min 0,000 mm 0 W/m 12,3 C 15,6 C 1,6 km/h (1 Bft) 100 %
10.08.2014 02:30 15,7 C 15,6 C 15,7 C 82 % 1011,5 hPa 0,0 l/m 0,0 km/h (0 Bft) N 0 0 min 0,000 mm 0 W/m 12,6 C 15,7 C 0,0 km/h (0 Bft) 100 %
10.08.2014 02:40 15,8 C 15,7 C 15,8 C 84 % 1012,1 hPa 1,0 l/m 0,0 km/h (0 Bft) N-NW 337 0 min 0,000 mm 0 W/m 13,1 C 15,8 C 1,6 km/h (1 Bft) 100 %
10.08.2014 02:50 15,5 C 15,5 C 15,8 C 85 % 1012,3 hPa 1,0 l/m 1,6 km/h (1 Bft) S 180 0 min 0,000 mm 0 W/m 13,0 C 15,5 C 11,3 km/h (2 Bft) 100 %
10.08.2014 03:00 15,3 C 15,3 C 15,5 C 86 % 1012,1 hPa 0,6 l/m 0,0 km/h (0 Bft) SO 135 0 min 0,025 mm 0 W/m 13,0 C 15,3 C 1,6 km/h (1 Bft) 100 %
10.08.2014 03:10 15,3 C 15,3 C 15,3 C 86 % 1011,6 hPa 1,0 l/m 0,0 km/h (0 Bft) SO 135 0 min 0,000 mm 0 W/m 13,0 C 15,3 C 1,6 km/h (1 Bft) 100 %
10.08.2014 03:20 15,3 C 15,3 C 15,3 C 86 % 1011,6 hPa 0,2 l/m 0,0 km/h (0 Bft) N-NO 22 0 min 0,000 mm 0 W/m 13,0 C 15,3 C 1,6 km/h (1 Bft) 100 %
10.08.2014 03:30 15,3 C 15,3 C 15,3 C 87 % 1011,3 hPa 0,0 l/m 0,0 km/h (0 Bft) N 0 0 min 0,000 mm 0 W/m 13,1 C 15,3 C 0,0 km/h (0 Bft) 100 %
10.08.2014 03:40 15,3 C 15,3 C 15,3 C 87 % 1011,6 hPa 0,0 l/m 0,0 km/h (0 Bft) N 0 0 min 0,000 mm 0 W/m 13,1 C 15,3 C 0,0 km/h (0 Bft) 100 %
10.08.2014 03:50 15,2 C 15,2 C 15,3 C 87 % 1011,4 hPa 0,0 l/m 0,0 km/h (0 Bft) N 0 0 min 0,000 mm 0 W/m 13,0 C 15,2 C 0,0 km/h (0 Bft) 100 %
10.08.2014 04:00 15,2 C 15,2 C 15,2 C 87 % 1011,6 hPa 0,0 l/m 0,0 km/h (0 Bft) N 0 0 min 0,000 mm 0 W/m 13,0 C 15,2 C 0,0 km/h (0 Bft) 100 %
10.08.2014 04:10 15,2 C 15,1 C 15,2 C 87 % 1011,3 hPa 0,4 l/m 0,0 km/h (0 Bft) N 360 0 min 0,000 mm 0 W/m 13,0 C 15,2 C 3,2 km/h (1 Bft) 91 %
10.08.2014 04:20 15,3 C 15,2 C 15,3 C 87 % 1010,8 hPa 0,2 l/m 0,0 km/h (0 Bft) N 360 0 min 0,000 mm 0 W/m 13,1 C 15,3 C 1,6 km/h (1 Bft) 99 %
10.08.2014 04:30 15,3 C 15,3 C 15,3 C 87 % 1010,6 hPa 0,0 l/m 0,0 km/h (0 Bft) N 360 0 min 0,000 mm 0 W/m 13,1 C 15,3 C 1,6 km/h (1 Bft) 96 %
10.08.2014 04:40 15,4 C 15,3 C 15,4 C 87 % 1010,4 hPa 0,0 l/m 0,0 km/h (0 Bft) N 360 0 min 0,000 mm 0 W/m 13,2 C 15,4 C 1,6 km/h (1 Bft) 100 %
10.08.2014 04:50 15,5 C 15,4 C 15,5 C 87 % 1010,3 hPa 0,0 l/m 0,0 km/h (0 Bft) N-NO 22 0 min 0,000 mm 0 W/m 13,3 C 15,5 C 1,6 km/h (1 Bft) 100 %
10.08.2014 05:00 15,6 C 15,5 C 15,6 C 87 % 1010,3 hPa 0,2 l/m 0,0 km/h (0 Bft) N-NO 22 0 min 0,000 mm 0 W/m 13,4 C 15,6 C 1,6 km/h (1 Bft) 99 %
10.08.2014 05:10 15,4 C 15,4 C 15,6 C 87 % 1010,3 hPa 0,0 l/m 0,0 km/h (0 Bft) N-NO 22 0 min 0,000 mm 0 W/m 13,2 C 15,4 C 3,2 km/h (1 Bft) 100 %
10.08.2014 05:20 15,4 C 15,4 C 15,5 C 87 % 1010,3 hPa 0,0 l/m 0,0 km/h (0 Bft) N-NO 22 0 min 0,000 mm 0 W/m 13,2 C 15,4 C 1,6 km/h (1 Bft) 100 %
10.08.2014 05:30 15,4 C 15,4 C 15,4 C 87 % 1010,3 hPa 0,0 l/m 0,0 km/h (0 Bft) N 0 0 min 0,000 mm 0 W/m 13,2 C 15,4 C 0,0 km/h (0 Bft) 100 %
10.08.2014 05:40 15,4 C 15,4 C 15,4 C 87 % 1010,3 hPa 0,0 l/m 0,0 km/h (0 Bft) N 360 0 min 0,000 mm 0 W/m 13,2 C 15,4 C 1,6 km/h (1 Bft) 100 %
10.08.2014 05:50 15,3 C 15,3 C 15,4 C 87 % 1010,2 hPa 0,0 l/m 0,0 km/h (0 Bft) N 0 0 min 0,000 mm 0 W/m 13,1 C 15,3 C 0,0 km/h (0 Bft) 100 %
10.08.2014 06:00 15,2 C 15,2 C 15,3 C 87 % 1010,1 hPa 0,0 l/m 0,0 km/h (0 Bft) N 0 0 min 0,000 mm 0 W/m 13,0 C 15,2 C 0,0 km/h (0 Bft) 100 %
10.08.2014 06:10 15,2 C 15,2 C 15,3 C 87 % 1010,0 hPa 0,0 l/m 0,0 km/h (0 Bft) N 0 0 min 0,000 mm 0 W/m 13,0 C 15,2 C 0,0 km/h (0 Bft) 100 %
10.08.2014 06:20 15,2 C 15,1 C 15,2 C 87 % 1009,9 hPa 0,0 l/m 0,0 km/h (0 Bft) N 0 0 min 0,000 mm 5 W/m 13,0 C 15,2 C 0,0 km/h (0 Bft) 100 %
10.08.2014 06:30 15,1 C 15,1 C 15,2 C 87 % 1010,0 hPa 0,0 l/m 0,0 km/h (0 Bft) N 360 0 min 0,000 mm 11 W/m 13,0 C 15,1 C 1,6 km/h (1 Bft) 100 %
10.08.2014 06:40 15,1 C 15,1 C 15,1 C 87 % 1010,0 hPa 0,0 l/m 0,0 km/h (0 Bft) N 360 0 min 0,000 mm 12 W/m 13,0 C 15,1 C 1,6 km/h (1 Bft) 100 %
10.08.2014 06:50 15,1 C 15,1 C 15,1 C 87 % 1010,0 hPa 0,0 l/m 0,0 km/h (0 Bft) N 360 0 min 0,000 mm 14 W/m 13,0 C 15,1 C 1,6 km/h (1 Bft) 100 %
10.08.2014 07:00 15,1 C 15,1 C 15,1 C 87 % 1010,0 hPa 0,0 l/m 0,0 km/h (0 Bft) N 0 0 min 0,000 mm 23 W/m 13,0 C 15,1 C 0,0 km/h (0 Bft) 100 %
10.08.2014 07:10 15,1 C 15,1 C 15,1 C 87 % 1009,9 hPa 0,0 l/m 0,0 km/h (0 Bft) N 360 0 min 0,000 mm 21 W/m 13,0 C 15,1 C 1,6 km/h (1 Bft) 100 %
10.08.2014 07:20 15,1 C 15,1 C 15,1 C 87 % 1010,0 hPa 0,0 l/m 0,0 km/h (0 Bft) N 0 0 min 0,000 mm 30 W/m 13,0 C 15,1 C 0,0 km/h (0 Bft) 100 %
10.08.2014 07:30 15,1 C 15,1 C 15,1 C 87 % 1010,0 hPa 0,0 l/m 0,0 km/h (0 Bft) N 0 0 min 0,000 mm 39 W/m 13,0 C 15,1 C 0,0 km/h (0 Bft) 100 %
10.08.2014 07:40 15,1 C 15,1 C 15,1 C 87 % 1010,1 hPa 0,0 l/m 0,0 km/h (0 Bft) N 0 0 min 0,000 mm 47 W/m 13,0 C 15,1 C 0,0 km/h (0 Bft) 100 %
10.08.2014 07:50 15,1 C 15,1 C 15,1 C 87 % 1010,0 hPa 0,0 l/m 0,0 km/h (0 Bft) N 0 0 min 0,000 mm 53 W/m 13,0 C 15,1 C 0,0 km/h (0 Bft) 100 %
10.08.2014 08:00 15,2 C 15,1 C 15,2 C 87 % 1010,1 hPa 0,0 l/m 0,0 km/h (0 Bft) N 0 0 min 0,025 mm 56 W/m 13,0 C 15,2 C 0,0 km/h (0 Bft) 100 %
10.08.2014 08:10 15,4 C 15,2 C 15,4 C 87 % 1010,1 hPa 0,0 l/m 0,0 km/h (0 Bft) N 0 0 min 0,000 mm 69 W/m 13,2 C 15,4 C 0,0 km/h (0 Bft) 100 %
10.08.2014 08:20 15,7 C 15,4 C 15,7 C 87 % 1010,0 hPa 0,0 l/m 0,0 km/h (0 Bft) N 0 0 min 0,000 mm 148 W/m 13,5 C 15,7 C 0,0 km/h (0 Bft) 100 %
10.08.2014 08:30 16,3 C 15,7 C 16,3 C 87 % 1009,9 hPa 0,0 l/m 0,0 km/h (0 Bft) N 360 0 min 0,000 mm 148 W/m 14,1 C 16,3 C 1,6 km/h (1 Bft) 100 %
10.08.2014 08:40 17,1 C 16,3 C 17,1 C 87 % 1009,7 hPa 0,0 l/m 0,0 km/h (0 Bft) S-SO 157 10 min 0,000 mm 288 W/m 14,9 C 17,1 C 3,2 km/h (1 Bft) 100 %
10.08.2014 08:50 17,6 C 17,1 C 17,6 C 87 % 1009,9 hPa 0,0 l/m 0,0 km/h (0 Bft) S-SO 157 10 min 0,000 mm 327 W/m 15,4 C 17,6 C 4,8 km/h (1 Bft) 100 %
10.08.2014 09:00 17,9 C 17,6 C 17,9 C 87 % 1009,9 hPa 0,0 l/m 1,6 km/h (1 Bft) S-SO 157 10 min 0,102 mm 357 W/m 15,7 C 17,9 C 8,0 km/h (2 Bft) 100 %
10.08.2014 09:10 18,4 C 17,9 C 18,4 C 87 % 1009,9 hPa 0,0 l/m 4,8 km/h (1 Bft) S-SO 157 10 min 0,000 mm 415 W/m 16,2 C 18,4 C 14,5 km/h (3 Bft) 100 %
10.08.2014 09:20 18,7 C 18,4 C 18,7 C 87 % 1009,8 hPa 0,0 l/m 4,8 km/h (1 Bft) S-SO 157 10 min 0,000 mm 431 W/m 16,5 C 18,7 C 19,3 km/h (3 Bft) 100 %
10.08.2014 09:30 19,1 C 18,7 C 19,2 C 87 % 1009,6 hPa 0,0 l/m 3,2 km/h (1 Bft) S-SO 157 10 min 0,000 mm 454 W/m 16,9 C 19,1 C 9,7 km/h (2 Bft) 100 %
10.08.2014 09:40 19,3 C 19,1 C 19,3 C 87 % 1009,7 hPa 0,0 l/m 4,8 km/h (1 Bft) S-SO 157 10 min 0,000 mm 424 W/m 17,1 C 19,3 C 16,1 km/h (3 Bft) 100 %
10.08.2014 09:50 19,4 C 19,3 C 19,6 C 86 % 1009,6 hPa 0,0 l/m 3,2 km/h (1 Bft) S-SO 157 10 min 0,000 mm 364 W/m 17,0 C 19,4 C 11,3 km/h (2 Bft) 100 %
10.08.2014 10:00 19,6 C 19,3 C 19,6 C 87 % 1009,7 hPa 0,0 l/m 4,8 km/h (1 Bft) S-SO 157 10 min 0,203 mm 459 W/m 17,4 C 19,6 C 11,3 km/h (2 Bft) 100 %
10.08.2014 10:10 20,1 C 19,6 C 20,1 C 86 % 1009,7 hPa 0,0 l/m 3,2 km/h (1 Bft) S 180 10 min 0,000 mm 613 W/m 17,7 C 20,1 C 12,9 km/h (3 Bft) 100 %
10.08.2014 10:20 20,6 C 20,1 C 20,6 C 85 % 1009,5 hPa 0,0 l/m 3,2 km/h (1 Bft) S 180 10 min 0,000 mm 635 W/m 18,0 C 20,6 C 16,1 km/h (3 Bft) 100 %
10.08.2014 10:30 20,6 C 20,6 C 20,7 C 85 % 1009,5 hPa 0,0 l/m 4,8 km/h (1 Bft) S-SO 157 10 min 0,000 mm 380 W/m 18,0 C 20,6 C 14,5 km/h (3 Bft) 100 %
10.08.2014 10:40 21,2 C 20,6 C 21,2 C 83 % 1009,8 hPa 0,0 l/m 3,2 km/h (1 Bft) S-SO 157 10 min 0,000 mm 640 W/m 18,2 C 21,2 C 17,7 km/h (3 Bft) 100 %
10.08.2014 10:50 21,7 C 21,2 C 21,7 C 82 % 1009,5 hPa 0,0 l/m 8,0 km/h (2 Bft) S-SO 157 10 min 0,000 mm 635 W/m 18,5 C 21,1 C 17,7 km/h (3 Bft) 100 %
10.08.2014 11:00 22,2 C 21,8 C 22,2 C 79 % 1009,4 hPa 0,0 l/m 8,0 km/h (2 Bft) S-SO 157 10 min 0,305 mm 675 W/m 18,4 C 21,7 C 19,3 km/h (3 Bft) 100 %
10.08.2014 11:10 22,8 C 22,2 C 22,8 C 79 % 1009,3 hPa 0,0 l/m 4,8 km/h (1 Bft) S 180 10 min 0,000 mm 810 W/m 19,0 C 22,8 C 17,7 km/h (3 Bft) 100 %
10.08.2014 11:20 23,1 C 22,2 C 23,1 C 79 % 1009,2 hPa 0,0 l/m 14,5 km/h (3 Bft) S 183 10 min 0,000 mm 517 W/m 19,3 C 21,1 C 19,3 km/h (3 Bft) 100 %
10.08.2014 11:30 23,8 C 23,1 C 23,8 C 76 % 1009,3 hPa 0,0 l/m 8,8 km/h (2 Bft) S-SW 193 10 min 0,000 mm 724 W/m 19,3 C 23,1 C 22,5 km/h (4 Bft) 100 %
10.08.2014 11:40 24,2 C 23,8 C 24,2 C 71 % 1009,1 hPa 0,0 l/m 8,9 km/h (2 Bft) S-SW 204 10 min 0,000 mm 900 W/m 18,6 C 23,5 C 19,3 km/h (3 Bft) 100 %
10.08.2014 11:50 24,4 C 24,2 C 24,4 C 73 % 1009,2 hPa 0,0 l/m 11,0 km/h (2 Bft) S-SW 208 10 min 0,000 mm 747 W/m 19,2 C 23,3 C 20,9 km/h (4 Bft) 100 %
10.08.2014 12:00 24,9 C 24,4 C 25,0 C 69 % 1008,9 hPa 0,0 l/m 8,0 km/h (2 Bft) O-SO 119 10 min 0,433 mm 754 W/m 18,8 C 24,5 C 19,3 km/h (3 Bft) 100 %
10.08.2014 12:10 24,9 C 24,7 C 24,9 C 71 % 1008,8 hPa 0,0 l/m 11,2 km/h (2 Bft) S-SO 164 10 min 0,000 mm 754 W/m 19,3 C 23,8 C 27,4 km/h (4 Bft) 100 %
10.08.2014 12:20 25,0 C 24,9 C 25,0 C 68 % 1008,9 hPa 0,0 l/m 10,1 km/h (2 Bft) S-SW 193 10 min 0,000 mm 751 W/m 18,7 C 24,1 C 22,5 km/h (4 Bft) 100 %
10.08.2014 12:30 25,3 C 25,0 C 25,3 C 69 % 1008,6 hPa 0,0 l/m 9,8 km/h (2 Bft) S 186 10 min 0,000 mm 703 W/m 19,2 C 24,5 C 19,3 km/h (3 Bft) 100 %
10.08.2014 12:40 25,7 C 25,3 C 25,7 C 68 % 1008,5 hPa 0,0 l/m 10,5 km/h (2 Bft) S-SW 209 10 min 0,000 mm 737 W/m 19,3 C 24,8 C 20,9 km/h (4 Bft) 100 %
10.08.2014 12:50 26,1 C 25,7 C 26,1 C 67 % 1008,2 hPa 0,0 l/m 7,9 km/h (2 Bft) S-SO 157 10 min 0,000 mm 795 W/m 19,5 C 25,8 C 22,5 km/h (4 Bft) 100 %
10.08.2014 13:00 26,3 C 26,0 C 26,3 C 64 % 1008,1 hPa 0,0 l/m 10,4 km/h (2 Bft) S-SW 196 10 min 0,508 mm 740 W/m 18,9 C 25,5 C 27,4 km/h (4 Bft) 100 %
10.08.2014 13:10 26,2 C 26,2 C 26,4 C 61 % 1007,9 hPa 0,0 l/m 7,3 km/h (2 Bft) S-SO 148 10 min 0,000 mm 884 W/m 18,1 C 26,0 C 19,3 km/h (3 Bft) 100 %
10.08.2014 13:20 26,1 C 26,0 C 26,2 C 62 % 1007,9 hPa 0,0 l/m 11,9 km/h (2 Bft) S-SW 196 10 min 0,000 mm 374 W/m 18,2 C 25,1 C 29,0 km/h (5 Bft) 100 %
10.08.2014 13:30 26,0 C 25,9 C 26,1 C 64 % 1007,8 hPa 0,0 l/m 6,4 km/h (2 Bft) SO 130 10 min 0,000 mm 768 W/m 18,6 C 26,0 C 19,3 km/h (3 Bft) 100 %
10.08.2014 13:40 26,6 C 26,0 C 26,6 C 62 % 1007,6 hPa 0,0 l/m 11,3 km/h (2 Bft) S 178 10 min 0,000 mm 805 W/m 18,7 C 25,7 C 22,5 km/h (4 Bft) 100 %
10.08.2014 13:50 27,1 C 26,6 C 27,1 C 62 % 1007,6 hPa 0,0 l/m 7,0 km/h (2 Bft) S-SW 193 10 min 0,000 mm 810 W/m 19,2 C 27,0 C 22,5 km/h (4 Bft) 100 %
10.08.2014 14:00 27,1 C 27,1 C 27,3 C 61 % 1007,4 hPa 0,0 l/m 9,5 km/h (2 Bft) S-SO 161 10 min 0,483 mm 708 W/m 18,9 C 26,6 C 19,3 km/h (3 Bft) 100 %
10.08.2014 14:10 27,2 C 27,1 C 27,3 C 60 % 1007,3 hPa 0,0 l/m 12,0 km/h (2 Bft) SW 225 10 min 0,000 mm 355 W/m 18,7 C 26,3 C 30,6 km/h (5 Bft) 99 %
10.08.2014 14:20 27,1 C 27,1 C 27,3 C 61 % 1007,3 hPa 0,0 l/m 7,8 km/h (2 Bft) S 187 10 min 0,000 mm 304 W/m 18,9 C 26,8 C 22,5 km/h (4 Bft) 100 %
10.08.2014 14:30 27,1 C 26,9 C 27,1 C 62 % 1007,4 hPa 0,0 l/m 9,4 km/h (2 Bft) S-SO 165 10 min 0,000 mm 666 W/m 19,2 C 26,6 C 22,5 km/h (4 Bft) 100 %
10.08.2014 14:40 26,8 C 26,8 C 27,2 C 61 % 1007,1 hPa 0,0 l/m 6,6 km/h (2 Bft) SO 146 10 min 0,000 mm 385 W/m 18,6 C 26,8 C 17,7 km/h (3 Bft) 100 %
10.08.2014 14:50 26,8 C 26,7 C 26,8 C 63 % 1006,9 hPa 0,0 l/m 4,6 km/h (1 Bft) S-SO 150 10 min 0,000 mm 770 W/m 19,1 C 26,8 C 17,7 km/h (3 Bft) 100 %
10.08.2014 15:00 27,2 C 26,8 C 27,2 C 61 % 1006,7 hPa 0,0 l/m 6,7 km/h (2 Bft) SO 140 10 min 0,356 mm 489 W/m 19,0 C 27,1 C 20,9 km/h (4 Bft) 100 %
10.08.2014 15:10 27,3 C 27,2 C 27,3 C 63 % 1006,8 hPa 0,0 l/m 3,9 km/h (1 Bft) SO 128 10 min 0,000 mm 330 W/m 19,6 C 27,3 C 17,7 km/h (3 Bft) 100 %
10.08.2014 15:20 27,3 C 27,3 C 27,3 C 61 % 1006,8 hPa 0,0 l/m 3,1 km/h (1 Bft) SO 145 10 min 0,000 mm 424 W/m 19,1 C 27,3 C 11,3 km/h (2 Bft) 100 %
10.08.2014 15:30 27,3 C 27,3 C 27,3 C 62 % 1006,7 hPa 0,0 l/m 5,4 km/h (1 Bft) SO 145 10 min 0,000 mm 399 W/m 19,4 C 27,3 C 16,1 km/h (3 Bft) 100 %
10.08.2014 15:40 27,2 C 27,2 C 27,3 C 62 % 1006,6 hPa 0,0 l/m 4,1 km/h (1 Bft) S-SW 194 10 min 0,000 mm 292 W/m 19,3 C 27,2 C 16,1 km/h (3 Bft) 100 %
10.08.2014 15:50 27,1 C 27,1 C 27,2 C 61 % 1006,4 hPa 0,0 l/m 5,9 km/h (2 Bft) SO 145 10 min 0,000 mm 236 W/m 18,9 C 27,1 C 17,7 km/h (3 Bft) 100 %
10.08.2014 16:00 26,8 C 26,8 C 27,1 C 58 % 1006,6 hPa 0,0 l/m 8,5 km/h (2 Bft) S 173 10 min 0,254 mm 244 W/m 17,8 C 26,4 C 24,1 km/h (4 Bft) 100 %
10.08.2014 16:10 26,7 C 26,7 C 26,8 C 59 % 1006,4 hPa 0,0 l/m 7,8 km/h (2 Bft) SO 129 10 min 0,000 mm 403 W/m 18,0 C 26,4 C 27,4 km/h (4 Bft) 100 %
10.08.2014 16:20 27,2 C 26,7 C 27,2 C 59 % 1006,4 hPa 0,0 l/m 5,2 km/h (1 Bft) S-SW 200 10 min 0,000 mm 288 W/m 18,5 C 27,2 C 16,1 km/h (3 Bft) 100 %
10.08.2014 16:30 27,0 C 26,9 C 27,2 C 61 % 1006,6 hPa 0,0 l/m 5,2 km/h (1 Bft) S-SW 192 10 min 0,000 mm 162 W/m 18,8 C 27,0 C 19,3 km/h (3 Bft) 100 %
10.08.2014 16:40 26,6 C 26,6 C 27,0 C 63 % 1006,2 hPa 0,0 l/m 4,8 km/h (1 Bft) S-SO 148 10 min 0,000 mm 160 W/m 19,0 C 26,6 C 20,9 km/h (4 Bft) 100 %
10.08.2014 16:50 26,4 C 26,4 C 26,6 C 59 % 1006,1 hPa 0,0 l/m 4,5 km/h (1 Bft) SO 140 0 min 0,000 mm 151 W/m 17,7 C 26,4 C 16,1 km/h (3 Bft) 100 %
10.08.2014 17:00 26,5 C 26,4 C 26,5 C 59 % 1006,0 hPa 0,0 l/m 10,0 km/h (2 Bft) S-SO 161 10 min 0,000 mm 190 W/m 17,8 C 25,8 C 25,7 km/h (4 Bft) 99 %
10.08.2014 17:10 26,7 C 26,5 C 26,7 C 62 % 1005,7 hPa 0,0 l/m 6,5 km/h (2 Bft) S-SW 201 10 min 0,203 mm 311 W/m 18,8 C 26,7 C 19,3 km/h (3 Bft) 100 %
10.08.2014 17:20 26,9 C 26,7 C 26,9 C 58 % 1005,5 hPa 0,0 l/m 5,9 km/h (2 Bft) S-SO 159 10 min 0,000 mm 186 W/m 17,9 C 26,9 C 17,7 km/h (3 Bft) 100 %
10.08.2014 17:30 26,7 C 26,7 C 26,9 C 59 % 1005,3 hPa 0,0 l/m 7,2 km/h (2 Bft) S 184 10 min 0,000 mm 181 W/m 18,0 C 26,5 C 22,5 km/h (4 Bft) 100 %
10.08.2014 17:40 26,5 C 26,5 C 26,7 C 59 % 1005,1 hPa 0,0 l/m 4,7 km/h (1 Bft) S-SW 196 10 min 0,000 mm 155 W/m 17,8 C 26,5 C 20,9 km/h (4 Bft) 100 %
10.08.2014 17:50 26,6 C 26,5 C 26,6 C 58 % 1005,1 hPa 0,0 l/m 4,2 km/h (1 Bft) S-SW 203 10 min 0,000 mm 155 W/m 17,6 C 26,6 C 16,1 km/h (3 Bft) 100 %
10.08.2014 18:00 26,5 C 26,5 C 26,6 C 57 % 1005,2 hPa 0,0 l/m 2,9 km/h (1 Bft) S-SO 165 0 min 0,152 mm 128 W/m 17,3 C 26,5 C 12,9 km/h (3 Bft) 100 %
10.08.2014 18:10 26,3 C 26,3 C 26,5 C 58 % 1005,1 hPa 0,0 l/m 2,4 km/h (1 Bft) S 171 0 min 0,000 mm 134 W/m 17,4 C 26,3 C 11,3 km/h (2 Bft) 100 %
10.08.2014 18:20 26,1 C 26,1 C 26,3 C 63 % 1004,8 hPa 0,0 l/m 1,8 km/h (1 Bft) S-SO 153 0 min 0,000 mm 113 W/m 18,5 C 26,1 C 11,3 km/h (2 Bft) 100 %
10.08.2014 18:30 26,1 C 26,1 C 26,1 C 63 % 1004,9 hPa 0,0 l/m 0,9 km/h (0 Bft) SO 142 0 min 0,000 mm 104 W/m 18,5 C 26,1 C 9,7 km/h (2 Bft) 100 %
10.08.2014 18:40 25,9 C 25,9 C 26,1 C 64 % 1005,0 hPa 0,0 l/m 0,0 km/h (0 Bft) S-SO 157 0 min 0,000 mm 54 W/m 18,6 C 25,9 C 1,6 km/h (1 Bft) 100 %
10.08.2014 18:50 25,7 C 25,7 C 25,9 C 64 % 1004,7 hPa 0,0 l/m 0,0 km/h (0 Bft) S-SO 148 0 min 0,000 mm 33 W/m 18,4 C 25,7 C 1,6 km/h (1 Bft) 100 %
10.08.2014 19:00 25,6 C 25,6 C 25,7 C 64 % 1004,6 hPa 0,0 l/m 0,0 km/h (0 Bft) S-SO 153 0 min 0,076 mm 25 W/m 18,3 C 25,6 C 1,6 km/h (1 Bft) 100 %
10.08.2014 19:10 25,4 C 25,4 C 25,6 C 64 % 1004,6 hPa 0,0 l/m 0,5 km/h (0 Bft) SO 136 0 min 0,000 mm 9 W/m 18,1 C 25,4 C 8,0 km/h (2 Bft) 100 %
10.08.2014 19:20 25,2 C 25,2 C 25,4 C 65 % 1004,6 hPa 0,0 l/m 0,0 km/h (0 Bft) SO 132 0 min 0,000 mm 0 W/m 18,1 C 25,2 C 1,6 km/h (1 Bft) 100 %
10.08.2014 19:30 25,0 C 25,0 C 25,2 C 70 % 1004,8 hPa 0,0 l/m 0,0 km/h (0 Bft) SO 139 0 min 0,000 mm 0 W/m 19,1 C 25,0 C 1,6 km/h (1 Bft) 100 %
10.08.2014 19:40 24,0 C 24,0 C 25,0 C 74 % 1004,8 hPa 0,6 l/m 0,1 km/h (0 Bft) O-SO 120 0 min 0,000 mm 0 W/m 19,1 C 24,0 C 1,6 km/h (1 Bft) 100 %
10.08.2014 19:50 23,2 C 23,2 C 24,0 C 78 % 1004,9 hPa 0,0 l/m 0,0 km/h (0 Bft) O-SO 120 0 min 0,000 mm 12 W/m 19,1 C 23,2 C 1,6 km/h (1 Bft) 100 %
10.08.2014 20:00 22,6 C 22,6 C 23,2 C 82 % 1005,0 hPa 0,0 l/m 0,0 km/h (0 Bft) O-SO 120 0 min 0,000 mm 12 W/m 19,4 C 22,6 C 1,6 km/h (1 Bft) 100 %
10.08.2014 20:10 22,1 C 22,1 C 22,6 C 84 % 1005,2 hPa 0,0 l/m 0,0 km/h (0 Bft) NW 312 0 min 0,000 mm 0 W/m 19,3 C 22,1 C 1,6 km/h (1 Bft) 100 %
10.08.2014 20:20 21,8 C 21,8 C 22,1 C 84 % 1004,9 hPa 0,0 l/m 0,8 km/h (0 Bft) NW 305 0 min 0,000 mm 0 W/m 19,0 C 21,8 C 6,4 km/h (2 Bft) 100 %
10.08.2014 20:30 21,7 C 21,7 C 21,8 C 86 % 1005,4 hPa 0,0 l/m 1,4 km/h (1 Bft) NW 308 0 min 0,000 mm 0 W/m 19,3 C 21,7 C 11,3 km/h (2 Bft) 100 %
10.08.2014 20:40 21,4 C 21,4 C 21,7 C 85 % 1005,7 hPa 0,0 l/m 7,1 km/h (2 Bft) N-NW 330 0 min 0,000 mm 0 W/m 18,8 C 21,1 C 16,1 km/h (3 Bft) 100 %
10.08.2014 20:50 21,4 C 21,4 C 21,5 C 85 % 1005,9 hPa 0,0 l/m 8,0 km/h (2 Bft) N-NW 327 0 min 0,000 mm 0 W/m 18,8 C 20,8 C 17,7 km/h (3 Bft) 100 %
10.08.2014 21:00 21,2 C 21,2 C 21,4 C 85 % 1005,9 hPa 0,0 l/m 0,6 km/h (0 Bft) N-NW 338 0 min 0,000 mm 0 W/m 18,6 C 21,2 C 6,4 km/h (2 Bft) 100 %
10.08.2014 21:10 21,0 C 21,0 C 21,2 C 85 % 1006,2 hPa 0,0 l/m 1,6 km/h (1 Bft) N-NW 337 0 min 0,000 mm 0 W/m 18,4 C 21,0 C 9,7 km/h (2 Bft) 100 %
10.08.2014 21:20 20,7 C 20,7 C 21,0 C 85 % 1006,4 hPa 0,0 l/m 0,0 km/h (0 Bft) N-NW 337 0 min 0,000 mm 0 W/m 18,1 C 20,7 C 1,6 km/h (1 Bft) 100 %
10.08.2014 21:30 20,6 C 20,5 C 20,7 C 85 % 1007,1 hPa 0,6 l/m 0,0 km/h (0 Bft) N-NW 337 0 min 0,000 mm 0 W/m 18,0 C 20,6 C 6,4 km/h (2 Bft) 100 %
10.08.2014 21:40 20,1 C 20,1 C 20,6 C 85 % 1008,9 hPa 6,2 l/m 14,5 km/h (3 Bft) S-SW 202 0 min 0,000 mm 0 W/m 17,5 C 17,5 C 46,7 km/h (6 Bft) 100 %
10.08.2014 21:50 19,1 C 19,1 C 20,0 C 86 % 1007,9 hPa 4,6 l/m 16,1 km/h (3 Bft) S-SW 202 0 min 0,000 mm 0 W/m 16,7 C 15,9 C 38,6 km/h (5 Bft) 100 %
10.08.2014 22:00 18,7 C 18,7 C 19,1 C 86 % 1007,2 hPa 0,0 l/m 3,2 km/h (1 Bft) S-SO 157 0 min 0,025 mm 0 W/m 16,3 C 18,7 C 14,5 km/h (3 Bft) 100 %
10.08.2014 22:10 18,5 C 18,5 C 18,7 C 87 % 1007,1 hPa 0,0 l/m 3,2 km/h (1 Bft) SW 225 0 min 0,000 mm 0 W/m 16,3 C 18,5 C 11,3 km/h (2 Bft) 100 %
10.08.2014 22:20 18,4 C 18,4 C 18,5 C 87 % 1007,2 hPa 0,0 l/m 1,6 km/h (1 Bft) SW 225 0 min 0,000 mm 0 W/m 16,2 C 18,4 C 9,7 km/h (2 Bft) 100 %
10.08.2014 22:30 18,3 C 18,3 C 18,5 C 87 % 1007,2 hPa 0,0 l/m 1,6 km/h (1 Bft) S-SO 157 0 min 0,000 mm 0 W/m 16,1 C 18,3 C 9,7 km/h (2 Bft) 100 %
10.08.2014 22:40 18,2 C 18,2 C 18,3 C 87 % 1007,1 hPa 0,0 l/m 0,0 km/h (0 Bft) S-SO 157 0 min 0,000 mm 0 W/m 16,0 C 18,2 C 1,6 km/h (1 Bft) 100 %
10.08.2014 22:50 18,1 C 18,1 C 18,2 C 87 % 1007,3 hPa 0,0 l/m 0,0 km/h (0 Bft) S-SO 157 0 min 0,000 mm 0 W/m 15,9 C 18,1 C 4,8 km/h (1 Bft) 100 %
10.08.2014 23:00 18,2 C 18,1 C 18,2 C 87 % 1007,3 hPa 0,0 l/m 1,6 km/h (1 Bft) S-SO 157 0 min 0,025 mm 0 W/m 16,0 C 18,2 C 8,0 km/h (2 Bft) 100 %
10.08.2014 23:10 18,3 C 18,2 C 18,3 C 87 % 1007,3 hPa 0,0 l/m 3,2 km/h (1 Bft) S-SO 157 0 min 0,000 mm 0 W/m 16,1 C 18,3 C 8,0 km/h (2 Bft) 100 %
10.08.2014 23:20 18,2 C 18,2 C 18,3 C 87 % 1007,4 hPa 0,0 l/m 3,2 km/h (1 Bft) S-SO 157 0 min 0,000 mm 0 W/m 16,0 C 18,2 C 11,3 km/h (2 Bft) 100 %
10.08.2014 23:30 18,2 C 18,2 C 18,2 C 87 % 1007,4 hPa 0,0 l/m 3,2 km/h (1 Bft) S-SO 157 0 min 0,000 mm 0 W/m 16,0 C 18,2 C 8,0 km/h (2 Bft) 100 %
10.08.2014 23:40 18,2 C 18,2 C 18,2 C 87 % 1007,5 hPa 0,0 l/m 1,6 km/h (1 Bft) S-SO 157 0 min 0,000 mm 0 W/m 16,0 C 18,2 C 6,4 km/h (2 Bft) 100 %
10.08.2014 23:50 18,2 C 18,2 C 18,2 C 87 % 1007,8 hPa 0,0 l/m 3,2 km/h (1 Bft) S-SO 157 0 min 0,000 mm 0 W/m 16,0 C 18,2 C 9,7 km/h (2 Bft) 100 %
_ Min-Zeit 04:10 04:10 06:40 18:00 19:00 - 00:00 - - - - - 00:50 06:30 02:30 04:10
Minimum _ 15,1 C 15,1 C 15,1 C 57 % 1004,6 hPa - 0,0 km/h (0 Bft) - - - - - 12,2 C 15,1 C 0,0 km/h (0 Bft) 91 %
_ Max-Zeit 14:00 15:20 14:00 03:30 02:50 21:40 21:50 - - 08:40 13:00 11:40 15:10 15:10 21:40 00:00
Maximum _ 27,3 C 27,3 C 27,3 C 87 % 1012,3 hPa 6,2 l/m 16,1 km/h
S-SW (3 Bft)
- - 10 min 0,508 mm 900 W/m 19,6 C 27,3 C 46,7 km/h
S-SW (6 Bft)
100 %
Durchschnitt _ 20,5 C 20,4 C 20,6 C 78 % 1008,5 hPa #16,6 l/m 3,2 km/h (1 Bft) S-SO - #9:10 h #3,250 mm 361 W/m 16,2 C 20,3 C 10,4 km/h (2 Bft) 100 %
PRIVATE WETTERSTATION BILLIGHEIM-ALLFELD - www.neckar-odenwald-wetter.de - Holger Sonntag